createdAt,value
2019-02-05T00:00:28.818Z,73.43
2019-02-05T00:01:28.125Z,73.44
2019-02-05T00:02:28.210Z,73.45
2019-02-05T00:03:28.227Z,73.58
2019-02-05T00:04:28.234Z,73.74
2019-02-05T00:05:27.984Z,73.87
2019-02-05T00:06:28.054Z,73.84
2019-02-05T00:07:28.083Z,73.97
2019-02-05T00:08:29.183Z,74.11
2019-02-05T00:09:28.080Z,73.99
2019-02-05T00:10:28.076Z,73.82
2019-02-05T00:11:27.987Z,73.73
2019-02-05T00:12:28.043Z,73.76
2019-02-05T00:13:28.026Z,73.89
2019-02-05T00:14:27.977Z,74.16
2019-02-05T00:15:27.983Z,74.11
2019-02-05T00:16:29.237Z,74.06
2019-02-05T00:17:28.015Z,73.86
2019-02-05T00:18:28.019Z,73.92
2019-02-05T00:19:27.996Z,73.99
2019-02-05T00:20:28.094Z,74.05
2019-02-05T00:21:28.022Z,73.76
2019-02-05T00:22:28.656Z,74.13
2019-02-05T00:23:28.260Z,74.29
2019-02-05T00:24:28.064Z,74.06
2019-02-05T00:25:28.025Z,74.04
2019-02-05T00:26:28.008Z,74
2019-02-05T00:27:28.157Z,74.07
2019-02-05T00:28:28.076Z,74.06
2019-02-05T00:29:28.199Z,74.11
2019-02-05T00:30:28.090Z,74.06
2019-02-05T00:31:28.411Z,74.17
2019-02-05T00:32:28.215Z,74.02
2019-02-05T00:33:28.228Z,74.11
2019-02-05T00:34:28.162Z,74.24
2019-02-05T00:35:27.905Z,74.37
2019-02-05T00:36:28.024Z,74.28
2019-02-05T00:37:28.469Z,74.52
2019-02-05T00:38:28.497Z,74.3
2019-02-05T00:39:29.609Z,74.24
2019-02-05T00:40:28.011Z,74.39
2019-02-05T00:41:29.740Z,74.35
2019-02-05T00:42:28.380Z,74.5
2019-02-05T00:43:27.988Z,74.44
2019-02-05T00:44:27.978Z,74.35
2019-02-05T00:45:27.868Z,74.27
2019-02-05T00:46:27.895Z,74.11
2019-02-05T00:47:28.822Z,74.11
2019-02-05T00:48:27.881Z,74.34
2019-02-05T00:49:28.219Z,74.4
2019-02-05T00:50:27.961Z,74.3
2019-02-05T00:51:28.256Z,74.25
2019-02-05T00:52:28.246Z,74.36
2019-02-05T00:53:29.383Z,74.32
2019-02-05T00:54:28.001Z,74.41
2019-02-05T00:55:28.979Z,74.49
2019-02-05T00:56:28.169Z,74.96
2019-02-05T00:57:27.992Z,74.94
2019-02-05T00:58:28.131Z,75.13
2019-02-05T00:59:27.987Z,75
2019-02-05T01:00:28.220Z,74.96
2019-02-05T01:01:28.314Z,74.92
2019-02-05T01:02:28.008Z,75.15
2019-02-05T01:03:29.792Z,75.25
2019-02-05T01:04:28.120Z,75.34
2019-02-05T01:05:28.125Z,75.31
2019-02-05T01:06:27.901Z,75.57
2019-02-05T01:07:28.141Z,75.45
2019-02-05T01:08:27.884Z,75.5
2019-02-05T01:09:27.868Z,75.39
2019-02-05T01:10:28.976Z,75.36
2019-02-05T01:11:28.064Z,75.55
2019-02-05T01:12:28.282Z,75.41
2019-02-05T01:13:28.791Z,75.34
2019-02-05T01:14:28.082Z,75.43
2019-02-05T01:15:28.257Z,75.41
2019-02-05T01:16:27.869Z,75.53
2019-02-05T01:17:27.899Z,75.81
2019-02-05T01:18:28.824Z,75.63
2019-02-05T01:19:27.994Z,75.65
2019-02-05T01:20:27.863Z,75.51
2019-02-05T01:21:28.124Z,75.42
2019-02-05T01:22:28.134Z,75.6
2019-02-05T01:23:27.861Z,75.67
2019-02-05T01:24:27.799Z,75.7
2019-02-05T01:25:28.042Z,75.56
2019-02-05T01:26:32.151Z,75.56
2019-02-05T01:27:28.272Z,75.37
2019-02-05T01:28:28.083Z,75.24
2019-02-05T01:29:29.200Z,75.58
2019-02-05T01:30:27.804Z,75.27
2019-02-05T01:31:28.292Z,75.46
2019-02-05T01:32:28.200Z,75.28
2019-02-05T01:33:27.797Z,75.68
2019-02-05T01:34:29.235Z,75.79
2019-02-05T01:35:27.964Z,75.83
2019-02-05T01:36:28.060Z,75.79
2019-02-05T01:37:27.783Z,76.05
2019-02-05T01:38:27.933Z,75.72
2019-02-05T01:39:27.971Z,75.49
2019-02-05T01:40:29.389Z,75.66
2019-02-05T01:41:27.999Z,75.51
2019-02-05T01:42:28.279Z,75.34
2019-02-05T01:43:28.178Z,75.66
2019-02-05T01:44:27.815Z,75.82
2019-02-05T01:45:27.795Z,75.77
2019-02-05T01:46:28.308Z,76.01
2019-02-05T01:47:27.888Z,75.99
2019-02-05T01:48:27.774Z,75.99
2019-02-05T01:49:29.028Z,76.06
2019-02-05T01:50:27.860Z,75.78
2019-02-05T01:51:28.025Z,75.78
2019-02-05T01:52:28.332Z,76.14
2019-02-05T01:53:27.816Z,76.23
2019-02-05T01:54:27.770Z,76.37
2019-02-05T01:55:27.763Z,76.25
2019-02-05T01:56:27.773Z,76.35
2019-02-05T01:57:28.874Z,76.34
2019-02-05T01:58:27.760Z,76.38
2019-02-05T01:59:27.760Z,76.37
2019-02-05T02:00:31.223Z,76.4
2019-02-05T02:01:27.743Z,76.5
2019-02-05T02:02:27.936Z,76.62
2019-02-05T02:03:27.982Z,76.63
2019-02-05T02:04:28.217Z,76.77
2019-02-05T02:05:29.078Z,76.69
2019-02-05T02:06:28.129Z,76.77
2019-02-05T02:07:28.014Z,76.82
2019-02-05T02:08:28.230Z,76.69
2019-02-05T02:09:27.797Z,76.92
2019-02-05T02:10:28.044Z,77.04
2019-02-05T02:11:28.057Z,76.76
2019-02-05T02:12:28.379Z,77.13
2019-02-05T02:13:28.004Z,77.16
2019-02-05T02:14:27.869Z,76.97
2019-02-05T02:15:28.011Z,77.21
2019-02-05T02:16:27.752Z,77.24
2019-02-05T02:17:27.837Z,77.24
2019-02-05T02:18:28.103Z,77.27
2019-02-05T02:19:28.092Z,77.22
2019-02-05T02:20:29.080Z,77.33
2019-02-05T02:21:27.967Z,77.31
2019-02-05T02:22:27.771Z,77.36
2019-02-05T02:23:27.806Z,77.46
2019-02-05T02:24:28.033Z,77.27
2019-02-05T02:25:28.168Z,77.51
2019-02-05T02:26:28.049Z,77.58
2019-02-05T02:27:27.827Z,77.59
2019-02-05T02:28:29.181Z,77.31
2019-02-05T02:29:27.974Z,77.39
2019-02-05T02:30:27.807Z,77.1
2019-02-05T02:31:27.845Z,77.49
2019-02-05T02:32:27.722Z,77.63
2019-02-05T02:33:27.800Z,77.43
2019-02-05T02:34:28.113Z,77.28
2019-02-05T02:35:28.145Z,77.63
2019-02-05T02:36:28.013Z,77.39
2019-02-05T02:37:28.107Z,77.57
2019-02-05T02:38:27.742Z,77.56
2019-02-05T02:39:28.433Z,77.39
2019-02-05T02:40:27.926Z,77.58
2019-02-05T02:41:27.773Z,77.55
2019-02-05T02:42:27.841Z,77.64
2019-02-05T02:43:28.488Z,77.66
2019-02-05T02:44:27.826Z,77.67
2019-02-05T02:45:28.098Z,77.65
2019-02-05T02:46:27.720Z,77.67
2019-02-05T02:47:28.065Z,77.77
2019-02-05T02:48:27.682Z,77.6
2019-02-05T02:49:27.680Z,77.91
2019-02-05T02:50:28.101Z,77.66
2019-02-05T02:51:28.922Z,77.52
2019-02-05T02:52:27.781Z,77.89
2019-02-05T02:53:28.343Z,77.8
2019-02-05T02:54:27.700Z,77.69
2019-02-05T02:55:27.751Z,77.85
2019-02-05T02:56:27.760Z,77.82
2019-02-05T02:57:28.793Z,77.59
2019-02-05T02:58:28.074Z,77.89
2019-02-05T02:59:29.181Z,78.06
2019-02-05T03:00:28.087Z,78.16
2019-02-05T03:01:27.746Z,77.99
2019-02-05T03:02:28.097Z,77.99
2019-02-05T03:03:27.693Z,77.92
2019-02-05T03:04:28.116Z,78.31
2019-02-05T03:05:28.328Z,78.31
2019-02-05T03:06:30.096Z,78.37
2019-02-05T03:07:27.705Z,78.09
2019-02-05T03:08:27.832Z,77.87
2019-02-05T03:09:28.038Z,77.81
2019-02-05T03:10:27.952Z,78.2
2019-02-05T03:11:27.656Z,78.56
2019-02-05T03:12:27.739Z,78.25
2019-02-05T03:13:28.254Z,78.11
2019-02-05T03:14:27.745Z,78.42
2019-02-05T03:15:27.874Z,78.24
2019-02-05T03:16:27.667Z,78.91
2019-02-05T03:17:27.679Z,78.61
2019-02-05T03:18:27.898Z,78.79
2019-02-05T03:19:27.683Z,78.65
2019-02-05T03:20:28.469Z,78.76
2019-02-05T03:21:27.697Z,78.63
2019-02-05T03:22:27.838Z,78.7
2019-02-05T03:23:27.938Z,78.74
2019-02-05T03:24:27.737Z,79.28
2019-02-05T03:25:27.714Z,79.12
2019-02-05T03:26:27.684Z,79.23
2019-02-05T03:27:27.717Z,78.98
2019-02-05T03:28:27.851Z,79.04
2019-02-05T03:29:27.755Z,78.82
2019-02-05T03:30:27.703Z,78.89
2019-02-05T03:31:27.887Z,79.01
2019-02-05T03:32:27.688Z,79.11
2019-02-05T03:33:27.801Z,79.04
2019-02-05T03:34:27.780Z,78.8
2019-02-05T03:35:28.702Z,78.95
2019-02-05T03:36:27.689Z,79.29
2019-02-05T03:37:27.636Z,79.01
2019-02-05T03:38:27.662Z,79.16
2019-02-05T03:39:27.613Z,79.03
2019-02-05T03:40:27.634Z,78.63
2019-02-05T03:41:28.257Z,78.78
2019-02-05T03:42:28.336Z,79.05
2019-02-05T03:43:27.737Z,79.02
2019-02-05T03:44:27.904Z,79.09
2019-02-05T03:45:28.314Z,79.01
2019-02-05T03:46:27.863Z,79.22
2019-02-05T03:47:27.689Z,79.33
2019-02-05T03:48:27.881Z,79.24
2019-02-05T03:49:28.179Z,79.59
2019-02-05T03:50:27.695Z,79.58
2019-02-05T03:51:28.301Z,79.78
2019-02-05T03:52:27.742Z,79.51
2019-02-05T03:53:27.923Z,79.56
2019-02-05T03:54:28.232Z,79.76
2019-02-05T03:55:27.933Z,79.74
2019-02-05T03:56:28.037Z,79.65
2019-02-05T03:57:32.623Z,79.63
2019-02-05T03:58:27.665Z,79.78
2019-02-05T03:59:27.607Z,79.87
2019-02-05T04:00:29.470Z,80
2019-02-05T04:01:27.751Z,80.01
2019-02-05T04:02:27.662Z,79.9
2019-02-05T04:03:27.879Z,79.84
2019-02-05T04:04:27.589Z,79.83
2019-02-05T04:05:32.901Z,80.14
2019-02-05T04:06:27.586Z,80.07
2019-02-05T04:07:27.810Z,79.93
2019-02-05T04:08:27.818Z,80.01
2019-02-05T04:09:27.861Z,80.15
2019-02-05T04:10:27.936Z,80.21
2019-02-05T04:11:27.552Z,80.14
2019-02-05T04:12:29.449Z,80.11
2019-02-05T04:13:28.248Z,80.13
2019-02-05T04:14:27.778Z,80.21
2019-02-05T04:15:27.756Z,80
2019-02-05T04:16:27.621Z,80.08
2019-02-05T04:17:27.641Z,80.11
2019-02-05T04:18:27.553Z,80.07
2019-02-05T04:19:27.561Z,80.31
2019-02-05T04:20:28.689Z,80.22
2019-02-05T04:21:27.836Z,80.41
2019-02-05T04:22:27.753Z,80.1
2019-02-05T04:23:27.749Z,80.13
2019-02-05T04:24:27.596Z,80.19
2019-02-05T04:25:27.595Z,80.14
2019-02-05T04:26:27.641Z,80.39
2019-02-05T04:27:27.710Z,80.12
2019-02-05T04:28:29.356Z,80.36
2019-02-05T04:29:27.551Z,80.28
2019-02-05T04:30:27.615Z,80.47
2019-02-05T04:31:27.553Z,80.18
2019-02-05T04:32:27.633Z,80.24
2019-02-05T04:33:27.711Z,80.37
2019-02-05T04:34:28.450Z,80.38
2019-02-05T04:35:28.202Z,80.38
2019-02-05T04:36:28.579Z,80.34
2019-02-05T04:37:28.537Z,80.59
2019-02-05T04:38:27.667Z,80.65
2019-02-05T04:39:27.593Z,80.38
2019-02-05T04:40:27.726Z,80.43
2019-02-05T04:41:27.743Z,80.41
2019-02-05T04:42:27.594Z,80.27
2019-02-05T04:43:28.945Z,80.38
2019-02-05T04:44:27.641Z,80.52
2019-02-05T04:45:34.640Z,80.44
2019-02-05T04:46:27.568Z,80.13
2019-02-05T04:47:27.602Z,80.53
2019-02-05T04:48:27.651Z,80.63
2019-02-05T04:49:27.805Z,80.41
2019-02-05T04:50:27.717Z,80.27
2019-02-05T04:51:28.895Z,80.45
2019-02-05T04:52:27.597Z,80.55
2019-02-05T04:53:27.565Z,80.5
2019-02-05T04:54:27.646Z,80.41
2019-02-05T04:55:27.653Z,80.59
2019-02-05T04:56:27.724Z,80.18
2019-02-05T04:57:27.720Z,80.62
2019-02-05T04:58:27.935Z,80.59
2019-02-05T04:59:27.503Z,80.58
2019-02-05T05:00:27.738Z,80.59
2019-02-05T05:01:27.746Z,80.4
2019-02-05T05:02:27.559Z,80.32
2019-02-05T05:03:27.559Z,80.45
2019-02-05T05:04:27.582Z,80.42
2019-02-05T05:05:27.516Z,80.43
2019-02-05T05:06:28.488Z,80.47
2019-02-05T05:07:27.492Z,80.46
2019-02-05T05:08:27.798Z,80.62
2019-02-05T05:09:27.518Z,80.7
2019-02-05T05:10:27.517Z,80.46
2019-02-05T05:11:27.534Z,80.54
2019-02-05T05:12:27.589Z,80.44
2019-02-05T05:13:27.601Z,80.65
2019-02-05T05:14:33.135Z,80.79
2019-02-05T05:15:27.737Z,80.52
2019-02-05T05:16:27.515Z,80.5
2019-02-05T05:17:27.644Z,80.34
2019-02-05T05:18:27.510Z,80.38
2019-02-05T05:19:27.526Z,80.75
2019-02-05T05:20:27.450Z,80.66
2019-02-05T05:21:28.477Z,80.62
2019-02-05T05:22:27.521Z,80.83
2019-02-05T05:23:27.580Z,80.76
2019-02-05T05:24:27.542Z,80.66
2019-02-05T05:25:27.609Z,80.77
2019-02-05T05:26:27.645Z,80.67
2019-02-05T05:27:27.340Z,80.86
2019-02-05T05:28:28.423Z,80.88
2019-02-05T05:29:27.819Z,80.81
2019-02-05T05:30:27.746Z,80.93
2019-02-05T05:31:27.766Z,81.12
2019-02-05T05:32:27.662Z,80.9
2019-02-05T05:33:27.975Z,81.49
2019-02-05T05:34:27.581Z,81.2
2019-02-05T05:35:44.730Z,80.99
2019-02-05T05:36:28.577Z,81.19
2019-02-05T05:37:27.615Z,80.93
2019-02-05T05:38:28.222Z,81.35
2019-02-05T05:39:27.695Z,81.06
2019-02-05T05:40:27.726Z,81.06
2019-02-05T05:41:28.538Z,81.17
2019-02-05T05:42:27.463Z,81.42
2019-02-05T05:43:28.418Z,81.06
2019-02-05T05:44:27.750Z,81.08
2019-02-05T05:45:27.482Z,81.16
2019-02-05T05:46:27.463Z,81.23
2019-02-05T05:47:27.684Z,81.01
2019-02-05T05:48:27.517Z,81.21
2019-02-05T05:49:28.198Z,81.07
2019-02-05T05:50:27.585Z,81.34
2019-02-05T05:51:29.087Z,81.37
2019-02-05T05:52:27.472Z,81.42
2019-02-05T05:53:27.563Z,81.29
2019-02-05T05:54:28.314Z,81.41
2019-02-05T05:55:27.484Z,81.34
2019-02-05T05:56:27.697Z,81.25
2019-02-05T05:57:27.543Z,81.29
2019-02-05T05:58:28.321Z,81.33
2019-02-05T05:59:27.730Z,81.22
2019-02-05T06:00:27.479Z,80.96
2019-02-05T06:01:27.397Z,80.92
2019-02-05T06:02:27.744Z,81.14
2019-02-05T06:03:28.396Z,81.07
2019-02-05T06:04:27.662Z,81.22
2019-02-05T06:05:27.569Z,81.12
2019-02-05T06:06:27.569Z,81.17
2019-02-05T06:07:27.554Z,81.31
2019-02-05T06:08:27.869Z,81.29
2019-02-05T06:09:27.425Z,81.37
2019-02-05T06:10:27.573Z,81.25
2019-02-05T06:11:27.447Z,81.58
2019-02-05T06:12:28.343Z,81.45
2019-02-05T06:13:28.310Z,81.7
2019-02-05T06:14:28.034Z,81.43
2019-02-05T06:15:27.567Z,81.58
2019-02-05T06:16:27.984Z,81.38
2019-02-05T06:17:27.672Z,81.27
2019-02-05T06:18:28.591Z,81.21
2019-02-05T06:19:27.459Z,81.21
2019-02-05T06:20:27.659Z,81.36
2019-02-05T06:21:27.885Z,81.45
2019-02-05T06:22:27.526Z,81.45
2019-02-05T06:23:27.677Z,81.34
2019-02-05T06:24:27.637Z,81.51
2019-02-05T06:25:27.476Z,81.54
2019-02-05T06:26:27.743Z,81.7
2019-02-05T06:27:27.389Z,81.34
2019-02-05T06:28:35.080Z,81.69
2019-02-05T06:29:28.199Z,81.76
2019-02-05T06:30:27.537Z,81.83
2019-02-05T06:31:27.439Z,81.82
2019-02-05T06:32:27.364Z,81.49
2019-02-05T06:33:27.445Z,81.33
2019-02-05T06:34:27.431Z,81.42
2019-02-05T06:35:27.860Z,81.01
2019-02-05T06:36:27.422Z,81.07
2019-02-05T06:37:27.539Z,81.07
2019-02-05T06:38:27.385Z,81.01
2019-02-05T06:39:27.559Z,81.12
2019-02-05T06:40:27.583Z,81.65
2019-02-05T06:41:27.512Z,81.24
2019-02-05T06:42:27.539Z,81.48
2019-02-05T06:43:28.508Z,81.44
2019-02-05T06:44:27.370Z,81.48
2019-02-05T06:45:27.425Z,80.88
2019-02-05T06:46:27.363Z,81
2019-02-05T06:47:27.384Z,81.22
2019-02-05T06:48:27.354Z,81.21
2019-02-05T06:49:27.378Z,81.05
2019-02-05T06:50:27.955Z,80.79
2019-02-05T06:51:27.402Z,80.98
2019-02-05T06:52:27.438Z,80.8
2019-02-05T06:53:27.354Z,80.78
2019-02-05T06:54:27.670Z,80.91
2019-02-05T06:55:27.369Z,80.96
2019-02-05T06:56:27.364Z,80.89
2019-02-05T06:57:27.354Z,80.68
2019-02-05T06:58:28.510Z,81
2019-02-05T06:59:27.431Z,80.94
2019-02-05T07:00:27.367Z,80.92
2019-02-05T07:01:27.335Z,81.11
2019-02-05T07:02:27.419Z,81.15
2019-02-05T07:03:27.545Z,81.32
2019-02-05T07:04:29.176Z,81.13
2019-02-05T07:05:28.138Z,81.15
2019-02-05T07:06:27.349Z,81.45
2019-02-05T07:07:27.332Z,81.29
2019-02-05T07:08:27.578Z,81.29
2019-02-05T07:09:27.572Z,81.61
2019-02-05T07:10:27.621Z,81.44
2019-02-05T07:11:27.580Z,81.5
2019-02-05T07:12:27.402Z,81.63
2019-02-05T07:13:29.010Z,81.32
2019-02-05T07:14:27.552Z,81.66
2019-02-05T07:15:27.414Z,81.44
2019-02-05T07:16:27.484Z,81.32
2019-02-05T07:17:27.338Z,81.44
2019-02-05T07:18:27.729Z,81.4
2019-02-05T07:19:27.570Z,81.31
2019-02-05T07:20:28.305Z,81.53
2019-02-05T07:21:27.390Z,81.33
2019-02-05T07:22:27.683Z,81.75
2019-02-05T07:23:27.644Z,81.41
2019-02-05T07:24:27.479Z,81.56
2019-02-05T07:25:27.421Z,81.18
2019-02-05T07:26:27.287Z,80.98
2019-02-05T07:27:27.439Z,80.92
2019-02-05T07:28:27.600Z,81.07
2019-02-05T07:29:27.285Z,81.12
2019-02-05T07:30:27.478Z,81.29
2019-02-05T07:31:27.543Z,81.28
2019-02-05T07:32:29.171Z,81.48
2019-02-05T07:33:27.446Z,81.53
2019-02-05T07:34:27.476Z,81.6
2019-02-05T07:35:28.544Z,81.79
2019-02-05T07:36:27.705Z,81.66
2019-02-05T07:37:27.375Z,81.9
2019-02-05T07:38:27.631Z,81.9
2019-02-05T07:39:27.941Z,81.84
2019-02-05T07:40:27.492Z,81.77
2019-02-05T07:41:27.405Z,81.79
2019-02-05T07:42:28.487Z,81.45
2019-02-05T07:43:27.532Z,81.36
2019-02-05T07:44:27.499Z,81.77
2019-02-05T07:45:27.641Z,82
2019-02-05T07:46:27.424Z,81.91
2019-02-05T07:47:27.483Z,81.68
2019-02-05T07:48:30.886Z,81.86
2019-02-05T07:49:28.223Z,81.44
2019-02-05T07:50:27.683Z,81.75
2019-02-05T07:51:27.412Z,82.01
2019-02-05T07:52:27.456Z,81.8
2019-02-05T07:53:27.362Z,81.69
2019-02-05T07:54:27.877Z,81.44
2019-02-05T07:55:27.474Z,81.36
2019-02-05T07:56:28.579Z,81.56
2019-02-05T07:57:27.253Z,81.5
2019-02-05T07:58:27.241Z,81.44
2019-02-05T07:59:27.529Z,81.62
2019-02-05T08:00:27.261Z,81.57
2019-02-05T08:01:27.590Z,81.53
2019-02-05T08:02:29.113Z,81.65
2019-02-05T08:03:27.698Z,81.71
2019-02-05T08:04:27.763Z,81.61
2019-02-05T08:05:27.480Z,81.45
2019-02-05T08:06:27.487Z,81.34
2019-02-05T08:07:27.316Z,81.81
2019-02-05T08:08:27.246Z,81.2
2019-02-05T08:09:27.441Z,81.19
2019-02-05T08:10:27.342Z,80.99
2019-02-05T08:11:27.417Z,81.09
2019-02-05T08:12:27.234Z,81.13
2019-02-05T08:13:27.332Z,80.8
2019-02-05T08:14:27.484Z,81.57
2019-02-05T08:15:27.244Z,81.65
2019-02-05T08:16:27.328Z,81.61
2019-02-05T08:17:28.201Z,81.81
2019-02-05T08:18:27.292Z,81.64
2019-02-05T08:19:27.208Z,81.22
2019-02-05T08:20:27.495Z,81.3
2019-02-05T08:21:29.090Z,81.35
2019-02-05T08:22:27.245Z,81.3
2019-02-05T08:23:27.197Z,81.35
2019-02-05T08:24:27.624Z,81.44
2019-02-05T08:25:27.327Z,81.39
2019-02-05T08:26:27.239Z,81.33
2019-02-05T08:27:27.331Z,81.71
2019-02-05T08:28:27.214Z,81.13
2019-02-05T08:29:27.195Z,81.46
2019-02-05T08:30:27.193Z,81.01
2019-02-05T08:31:27.329Z,81.36
2019-02-05T08:32:28.505Z,81.07
2019-02-05T08:33:27.301Z,80.72
2019-02-05T08:34:27.222Z,80.44
2019-02-05T08:35:27.218Z,80.4
2019-02-05T08:36:27.254Z,80.24
2019-02-05T08:37:27.444Z,80.49
2019-02-05T08:38:27.218Z,80.69
2019-02-05T08:39:28.346Z,80.43
2019-02-05T08:40:27.209Z,80.3
2019-02-05T08:41:27.244Z,80.49
2019-02-05T08:42:27.339Z,80.04
2019-02-05T08:43:27.174Z,80.11
2019-02-05T08:44:27.192Z,80.01
2019-02-05T08:45:27.189Z,79.88
2019-02-05T08:46:27.512Z,79.97
2019-02-05T08:47:27.216Z,79.71
2019-02-05T08:48:27.629Z,79.66
2019-02-05T08:49:27.215Z,80.09
2019-02-05T08:50:28.043Z,80
2019-02-05T08:51:27.227Z,80.04
2019-02-05T08:52:27.185Z,79.66
2019-02-05T08:53:27.456Z,79.57
2019-02-05T08:54:28.343Z,79.88
2019-02-05T08:55:27.309Z,79.67
2019-02-05T08:56:27.338Z,79.47
2019-02-05T08:57:27.168Z,79.4
2019-02-05T08:58:31.700Z,79.45
2019-02-05T08:59:28.141Z,79.33
2019-02-05T09:00:27.274Z,79.65
2019-02-05T09:01:28.654Z,79.56
2019-02-05T09:02:27.407Z,79.38
2019-02-05T09:03:27.280Z,79.48
2019-02-05T09:04:27.334Z,79.01
2019-02-05T09:05:27.312Z,78.9
2019-02-05T09:06:27.337Z,78.84
2019-02-05T09:07:27.674Z,78.86
2019-02-05T09:08:27.820Z,78.81
2019-02-05T09:09:28.987Z,78.83
2019-02-05T09:10:27.374Z,78.8
2019-02-05T09:11:27.185Z,78.86
2019-02-05T09:12:27.211Z,78.83
2019-02-05T09:13:27.136Z,78.67
2019-02-05T09:14:27.202Z,78.71
2019-02-05T09:15:30.170Z,78.56
2019-02-05T09:16:28.281Z,78.42
2019-02-05T09:17:27.170Z,78.56
2019-02-05T09:18:27.347Z,78.34
2019-02-05T09:19:27.536Z,78.46
2019-02-05T09:20:27.222Z,78.15
2019-02-05T09:21:27.434Z,78.24
2019-02-05T09:22:27.337Z,78.07
2019-02-05T09:23:28.534Z,77.73
2019-02-05T09:24:27.374Z,77.91
2019-02-05T09:25:27.181Z,78.22
2019-02-05T09:26:28.370Z,78.2
2019-02-05T09:27:27.180Z,78.02
2019-02-05T09:28:27.306Z,78.12
2019-02-05T09:29:33.894Z,78.18
2019-02-05T09:30:27.172Z,77.88
2019-02-05T09:31:27.103Z,78.03
2019-02-05T09:32:27.110Z,77.87
2019-02-05T09:33:27.154Z,77.87
2019-02-05T09:34:27.160Z,77.74
2019-02-05T09:35:27.186Z,77.56
2019-02-05T09:36:27.527Z,77.5
2019-02-05T09:37:27.657Z,77.56
2019-02-05T09:38:28.425Z,77.21
2019-02-05T09:39:27.109Z,77.14
2019-02-05T09:40:27.430Z,77.13
2019-02-05T09:41:27.679Z,77.02
2019-02-05T09:42:27.300Z,77.13
2019-02-05T09:43:27.367Z,77
2019-02-05T09:44:27.082Z,77.1
2019-02-05T09:45:28.062Z,76.91
2019-02-05T09:46:27.121Z,77.11
2019-02-05T09:47:27.226Z,77.15
2019-02-05T09:48:27.261Z,77.15
2019-02-05T09:49:27.341Z,77.03
2019-02-05T09:50:27.175Z,77
2019-02-05T09:51:27.412Z,76.81
2019-02-05T09:52:27.242Z,76.68
2019-02-05T09:53:27.337Z,76.57
2019-02-05T09:54:27.325Z,76.48
2019-02-05T09:55:27.344Z,76.71
2019-02-05T09:56:27.244Z,76.64
2019-02-05T09:57:27.167Z,76.54
2019-02-05T09:58:27.117Z,76.22
2019-02-05T09:59:27.233Z,76.2
2019-02-05T10:00:30.005Z,76.49
2019-02-05T10:01:28.116Z,76.34
2019-02-05T10:02:27.125Z,76.2
2019-02-05T10:03:27.099Z,76.03
2019-02-05T10:04:27.075Z,76.1
2019-02-05T10:05:27.073Z,76.44
2019-02-05T10:06:27.065Z,76.11
2019-02-05T10:07:28.003Z,75.97
2019-02-05T10:08:27.086Z,75.87
2019-02-05T10:09:27.143Z,75.71
2019-02-05T10:10:27.120Z,75.37
2019-02-05T10:11:27.096Z,75.45
2019-02-05T10:12:27.086Z,75.42
2019-02-05T10:13:27.112Z,75.48
2019-02-05T10:14:27.148Z,75.59
2019-02-05T10:15:27.205Z,75.5
2019-02-05T10:16:27.101Z,75.62
2019-02-05T10:17:27.104Z,75.31
2019-02-05T10:18:27.052Z,75.34
2019-02-05T10:19:27.085Z,75.39
2019-02-05T10:20:27.089Z,75.29
2019-02-05T10:21:27.159Z,75.32
2019-02-05T10:22:28.104Z,75.04
2019-02-05T10:23:27.132Z,75.33
2019-02-05T10:24:27.221Z,75.2
2019-02-05T10:25:27.070Z,75.27
2019-02-05T10:26:27.221Z,75.16
2019-02-05T10:27:27.058Z,74.99
2019-02-05T10:28:27.167Z,75.07
2019-02-05T10:29:27.843Z,74.45
2019-02-05T10:30:27.251Z,74.71
2019-02-05T10:31:27.088Z,74.62
2019-02-05T10:32:27.051Z,74.82
2019-02-05T10:33:27.070Z,74.41
2019-02-05T10:34:34.584Z,74.11
2019-02-05T10:35:27.208Z,74.33
2019-02-05T10:36:27.301Z,74.72
2019-02-05T10:37:27.998Z,74.62
2019-02-05T10:38:27.357Z,74.4
2019-02-05T10:39:27.174Z,74.24
2019-02-05T10:40:27.209Z,74.35
2019-02-05T10:41:27.243Z,74.23
2019-02-05T10:42:26.996Z,74.37
2019-02-05T10:43:27.257Z,73.85
2019-02-05T10:44:27.735Z,74.04
2019-02-05T10:45:27.679Z,74.01
2019-02-05T10:46:27.585Z,73.88
2019-02-05T10:47:28.719Z,73.69
2019-02-05T10:48:27.712Z,73.47
2019-02-05T10:49:27.027Z,73.59
2019-02-05T10:50:27.134Z,73.86
2019-02-05T10:51:28.867Z,72.9
2019-02-05T10:52:27.195Z,72.98
2019-02-05T10:53:27.449Z,72.82
2019-02-05T10:54:27.221Z,72.88
2019-02-05T10:55:27.008Z,73
2019-02-05T10:56:27.147Z,72.94
2019-02-05T10:57:27.760Z,72.96
2019-02-05T10:58:27.093Z,73.05
2019-02-05T10:59:28.039Z,72.93
2019-02-05T11:00:27.593Z,72.76
2019-02-05T11:01:27.147Z,72.74
2019-02-05T11:02:27.201Z,72.83
2019-02-05T11:03:28.211Z,72.74
2019-02-05T11:04:27.017Z,72.74
2019-02-05T11:05:26.954Z,71.64
2019-02-05T11:06:29.140Z,72.55
2019-02-05T11:07:27.225Z,71.89
2019-02-05T11:08:27.329Z,72.53
2019-02-05T11:09:27.368Z,72.2
2019-02-05T11:10:27.102Z,72.18
2019-02-05T11:11:27.448Z,72.67
2019-02-05T11:12:26.965Z,71.84
2019-02-05T11:13:27.074Z,71.99
2019-02-05T11:14:29.878Z,71.86
2019-02-05T11:15:27.392Z,71.88
2019-02-05T11:16:26.794Z,71.21
2019-02-05T11:17:27.194Z,71.34
2019-02-05T11:18:27.098Z,71.51
2019-02-05T11:19:26.971Z,71.36
2019-02-05T11:20:27.087Z,70.2
2019-02-05T11:21:28.490Z,70.55
2019-02-05T11:22:39.589Z,70.55
2019-02-05T11:23:27.336Z,71.26
2019-02-05T11:24:26.966Z,71.6
2019-02-05T11:25:27.265Z,70.72
2019-02-05T11:26:26.919Z,70.12
2019-02-05T11:27:27.561Z,70.19
2019-02-05T11:28:27.923Z,70.37
2019-02-05T11:29:27.342Z,69.54
2019-02-05T11:30:27.272Z,70.45
2019-02-05T11:31:27.080Z,70.06
2019-02-05T11:32:27.110Z,69.72
2019-02-05T11:33:27.014Z,70
2019-02-05T11:34:27.043Z,69.27
2019-02-05T11:35:28.791Z,69.48
2019-02-05T11:36:26.904Z,68.61
2019-02-05T11:37:27.084Z,69.48
2019-02-05T11:38:27.060Z,69.44
2019-02-05T11:39:26.990Z,68.97
2019-02-05T11:40:27.138Z,69.71
2019-02-05T11:41:27.097Z,68.64
2019-02-05T11:42:26.903Z,67.35
2019-02-05T11:43:28.228Z,66.75
2019-02-05T11:44:27.143Z,68.24
2019-02-05T11:45:27.254Z,68.63
2019-02-05T11:46:27.162Z,68.22
2019-02-05T11:47:26.925Z,68.15
2019-02-05T11:48:27.178Z,68.22
2019-02-05T11:49:26.912Z,68.33
2019-02-05T11:50:28.070Z,68.29
2019-02-05T11:51:27.204Z,67.88
2019-02-05T11:52:27.417Z,67.42
2019-02-05T11:53:27.708Z,68.22
2019-02-05T11:54:26.925Z,67.52
2019-02-05T11:55:27.250Z,67.91
2019-02-05T11:56:27.256Z,66.8
2019-02-05T11:57:27.228Z,65.35
2019-02-05T11:58:27.108Z,65.65
2019-02-05T11:59:27.412Z,67.06
2019-02-05T12:00:33.365Z,66.98
2019-02-05T12:01:39.523Z,66.16
2019-02-05T12:02:27.162Z,66.83
2019-02-05T12:03:27.403Z,66.58
2019-02-05T12:04:27.133Z,66.52
2019-02-05T12:05:28.579Z,66.79
2019-02-05T12:06:27.214Z,66.61
2019-02-05T12:07:27.221Z,66.98
2019-02-05T12:08:27.380Z,66.55
2019-02-05T12:09:27.486Z,66.2
2019-02-05T12:10:26.923Z,66.15
2019-02-05T12:11:27.441Z,65.69
2019-02-05T12:12:27.813Z,65.58
2019-02-05T12:13:27.038Z,64.13
2019-02-05T12:14:26.898Z,64.79
2019-02-05T12:15:27.467Z,65.46
2019-02-05T12:16:27.055Z,65.26
2019-02-05T12:17:27.590Z,65.89
2019-02-05T12:18:27.069Z,65.62
2019-02-05T12:19:27.487Z,65.65
2019-02-05T12:20:27.594Z,65.8
2019-02-05T12:21:26.868Z,65.28
2019-02-05T12:22:27.115Z,64.1
2019-02-05T12:23:27.023Z,64.46
2019-02-05T12:24:27.114Z,65.09
2019-02-05T12:25:26.898Z,64.48
2019-02-05T12:26:26.858Z,63.95
2019-02-05T12:27:26.877Z,63.99
2019-02-05T12:28:27.120Z,64.08
2019-02-05T12:29:26.896Z,64.55
2019-02-05T12:30:26.902Z,64.56
2019-02-05T12:31:27.146Z,64.2
2019-02-05T12:32:26.822Z,63.1
2019-02-05T12:33:27.719Z,63.15
2019-02-05T12:34:28.159Z,63.67
2019-02-05T12:35:27.582Z,63.33
2019-02-05T12:36:27.758Z,63.4
2019-02-05T12:37:27.069Z,63.64
2019-02-05T12:38:27.233Z,63.39
2019-02-05T12:39:27.096Z,63.3
2019-02-05T12:40:27.042Z,63.3
2019-02-05T12:41:27.290Z,63.23
2019-02-05T12:42:27.007Z,63.48
2019-02-05T12:43:27.123Z,62.71
2019-02-05T12:44:27.032Z,63.56
2019-02-05T12:45:28.673Z,61.34
2019-02-05T12:46:26.836Z,60.53
2019-02-05T12:47:26.919Z,60.95
2019-02-05T12:48:26.781Z,62.85
2019-02-05T12:49:27.952Z,63.35
2019-02-05T12:50:26.841Z,63.21
2019-02-05T12:51:27.069Z,63.17
2019-02-05T12:52:28.656Z,62.95
2019-02-05T12:53:27.080Z,61.86
2019-02-05T12:54:27.175Z,62.19
2019-02-05T12:55:26.977Z,61.83